sensor_id;sensor_type;location;lat;lon;timestamp;P1;durP1;ratioP1;P2;durP2;ratioP2
16093;SDS011;8151;47.824;12.092;2023-03-23T00:01:08;2.57;;;1.67;;
16093;SDS011;8151;47.824;12.092;2023-03-23T00:03:38;1.50;;;1.40;;
16093;SDS011;8151;47.824;12.092;2023-03-23T00:06:07;2.10;;;1.80;;
16093;SDS011;8151;47.824;12.092;2023-03-23T00:08:36;1.80;;;1.70;;
16093;SDS011;8151;47.824;12.092;2023-03-23T00:11:12;2.43;;;1.80;;
16093;SDS011;8151;47.824;12.092;2023-03-23T00:13:41;2.57;;;1.50;;
16093;SDS011;8151;47.824;12.092;2023-03-23T00:16:09;5.60;;;1.70;;
16093;SDS011;8151;47.824;12.092;2023-03-23T00:18:43;3.83;;;1.70;;
16093;SDS011;8151;47.824;12.092;2023-03-23T00:21:11;3.53;;;1.70;;
16093;SDS011;8151;47.824;12.092;2023-03-23T00:23:38;2.13;;;1.90;;
16093;SDS011;8151;47.824;12.092;2023-03-23T00:26:06;1.53;;;1.43;;
16093;SDS011;8151;47.824;12.092;2023-03-23T00:28:35;2.20;;;1.63;;
16093;SDS011;8151;47.824;12.092;2023-03-23T00:31:05;2.43;;;1.50;;
16093;SDS011;8151;47.824;12.092;2023-03-23T00:33:35;2.50;;;1.77;;
16093;SDS011;8151;47.824;12.092;2023-03-23T00:36:06;1.83;;;1.73;;
16093;SDS011;8151;47.824;12.092;2023-03-23T00:38:35;2.23;;;1.70;;
16093;SDS011;8151;47.824;12.092;2023-03-23T00:41:04;1.97;;;1.50;;
16093;SDS011;8151;47.824;12.092;2023-03-23T00:43:32;1.83;;;1.73;;
16093;SDS011;8151;47.824;12.092;2023-03-23T00:46:03;1.73;;;1.50;;
16093;SDS011;8151;47.824;12.092;2023-03-23T00:48:35;3.70;;;1.80;;
16093;SDS011;8151;47.824;12.092;2023-03-23T00:51:06;1.60;;;1.50;;
16093;SDS011;8151;47.824;12.092;2023-03-23T00:53:37;6.60;;;1.67;;
16093;SDS011;8151;47.824;12.092;2023-03-23T00:56:05;1.87;;;1.77;;
16093;SDS011;8151;47.824;12.092;2023-03-23T00:58:35;3.37;;;2.00;;
16093;SDS011;8151;47.824;12.092;2023-03-23T01:01:03;1.93;;;1.63;;
16093;SDS011;8151;47.824;12.092;2023-03-23T01:03:32;2.00;;;1.80;;
16093;SDS011;8151;47.824;12.092;2023-03-23T01:06:04;3.83;;;1.80;;
16093;SDS011;8151;47.824;12.092;2023-03-23T01:08:34;2.17;;;1.77;;
16093;SDS011;8151;47.824;12.092;2023-03-23T01:11:06;1.70;;;1.40;;
16093;SDS011;8151;47.824;12.092;2023-03-23T01:13:35;1.93;;;1.73;;
16093;SDS011;8151;47.824;12.092;2023-03-23T01:16:02;1.77;;;1.50;;
16093;SDS011;8151;47.824;12.092;2023-03-23T01:18:31;1.63;;;1.47;;
16093;SDS011;8151;47.824;12.092;2023-03-23T01:21:02;1.73;;;1.50;;
16093;SDS011;8151;47.824;12.092;2023-03-23T01:23:31;2.40;;;2.13;;
16093;SDS011;8151;47.824;12.092;2023-03-23T01:26:02;1.80;;;1.70;;
16093;SDS011;8151;47.824;12.092;2023-03-23T01:28:30;2.13;;;1.60;;
16093;SDS011;8151;47.824;12.092;2023-03-23T01:31:00;7.70;;;1.83;;
16093;SDS011;8151;47.824;12.092;2023-03-23T01:33:29;1.70;;;1.60;;
16093;SDS011;8151;47.824;12.092;2023-03-23T01:35:58;2.03;;;1.80;;
16093;SDS011;8151;47.824;12.092;2023-03-23T01:38:29;2.20;;;1.63;;
16093;SDS011;8151;47.824;12.092;2023-03-23T01:40:58;1.77;;;1.40;;
16093;SDS011;8151;47.824;12.092;2023-03-23T01:43:25;2.17;;;1.80;;
16093;SDS011;8151;47.824;12.092;2023-03-23T01:45:52;2.87;;;1.60;;
16093;SDS011;8151;47.824;12.092;2023-03-23T01:48:22;11.20;;;1.97;;
16093;SDS011;8151;47.824;12.092;2023-03-23T01:50:54;2.57;;;1.70;;
16093;SDS011;8151;47.824;12.092;2023-03-23T01:53:26;3.47;;;1.90;;
16093;SDS011;8151;47.824;12.092;2023-03-23T01:55:57;5.13;;;1.70;;
16093;SDS011;8151;47.824;12.092;2023-03-23T01:58:30;2.13;;;1.93;;
16093;SDS011;8151;47.824;12.092;2023-03-23T02:01:01;1.83;;;1.60;;
16093;SDS011;8151;47.824;12.092;2023-03-23T02:03:34;2.07;;;1.80;;
16093;SDS011;8151;47.824;12.092;2023-03-23T02:06:04;7.30;;;1.93;;
16093;SDS011;8151;47.824;12.092;2023-03-23T02:08:31;4.03;;;1.80;;
16093;SDS011;8151;47.824;12.092;2023-03-23T02:11:01;5.33;;;2.10;;
16093;SDS011;8151;47.824;12.092;2023-03-23T02:13:38;2.73;;;1.90;;
16093;SDS011;8151;47.824;12.092;2023-03-23T02:16:07;2.00;;;1.70;;
16093;SDS011;8151;47.824;12.092;2023-03-23T02:18:46;3.23;;;1.80;;
16093;SDS011;8151;47.824;12.092;2023-03-23T02:21:38;2.20;;;2.00;;
16093;SDS011;8151;47.824;12.092;2023-03-23T02:27:25;2.57;;;2.00;;
16093;SDS011;8151;47.824;12.092;2023-03-23T02:30:20;2.20;;;2.00;;
16093;SDS011;8151;47.824;12.092;2023-03-23T02:36:04;2.30;;;1.80;;
16093;SDS011;8151;47.824;12.092;2023-03-23T02:38:41;3.70;;;1.90;;
16093;SDS011;8151;47.824;12.092;2023-03-23T02:41:18;3.00;;;1.60;;
16093;SDS011;8151;47.824;12.092;2023-03-23T02:43:49;2.50;;;1.90;;
16093;SDS011;8151;47.824;12.092;2023-03-23T02:46:17;3.83;;;1.90;;
16093;SDS011;8151;47.824;12.092;2023-03-23T02:48:48;7.63;;;2.20;;
16093;SDS011;8151;47.824;12.092;2023-03-23T02:51:19;2.10;;;1.90;;
16093;SDS011;8151;47.824;12.092;2023-03-23T02:53:49;1.97;;;1.67;;
16093;SDS011;8151;47.824;12.092;2023-03-23T02:56:20;2.57;;;1.70;;
16093;SDS011;8151;47.824;12.092;2023-03-23T02:58:51;1.43;;;1.33;;
16093;SDS011;8151;47.824;12.092;2023-03-23T03:04:17;1.97;;;1.60;;
16093;SDS011;8151;47.824;12.092;2023-03-23T03:06:51;2.87;;;1.47;;
16093;SDS011;8151;47.824;12.092;2023-03-23T03:09:30;1.60;;;1.50;;
16093;SDS011;8151;47.824;12.092;2023-03-23T03:12:05;2.17;;;1.60;;
16093;SDS011;8151;47.824;12.092;2023-03-23T03:14:41;2.93;;;1.87;;
16093;SDS011;8151;47.824;12.092;2023-03-23T03:17:19;4.53;;;1.90;;
16093;SDS011;8151;47.824;12.092;2023-03-23T03:19:52;1.67;;;1.50;;
16093;SDS011;8151;47.824;12.092;2023-03-23T03:22:24;2.23;;;1.77;;
16093;SDS011;8151;47.824;12.092;2023-03-23T03:24:55;5.77;;;1.80;;
16093;SDS011;8151;47.824;12.092;2023-03-23T03:27:25;2.57;;;1.80;;
16093;SDS011;8151;47.824;12.092;2023-03-23T03:29:55;1.67;;;1.50;;
16093;SDS011;8151;47.824;12.092;2023-03-23T03:32:27;2.33;;;1.60;;
16093;SDS011;8151;47.824;12.092;2023-03-23T03:35:03;2.63;;;1.83;;
16093;SDS011;8151;47.824;12.092;2023-03-23T03:37:33;2.10;;;1.83;;
16093;SDS011;8151;47.824;12.092;2023-03-23T03:40:03;7.13;;;2.00;;
16093;SDS011;8151;47.824;12.092;2023-03-23T03:42:47;2.07;;;1.60;;
16093;SDS011;8151;47.824;12.092;2023-03-23T03:45:15;2.00;;;1.77;;
16093;SDS011;8151;47.824;12.092;2023-03-23T03:47:44;1.90;;;1.80;;
16093;SDS011;8151;47.824;12.092;2023-03-23T03:50:13;2.20;;;1.90;;
16093;SDS011;8151;47.824;12.092;2023-03-23T03:52:42;3.00;;;1.80;;
16093;SDS011;8151;47.824;12.092;2023-03-23T03:55:09;1.97;;;1.77;;
16093;SDS011;8151;47.824;12.092;2023-03-23T03:57:37;3.10;;;1.60;;
16093;SDS011;8151;47.824;12.092;2023-03-23T04:00:05;4.23;;;2.00;;
16093;SDS011;8151;47.824;12.092;2023-03-23T04:02:43;2.70;;;1.80;;
16093;SDS011;8151;47.824;12.092;2023-03-23T04:05:18;7.13;;;1.97;;
16093;SDS011;8151;47.824;12.092;2023-03-23T04:07:46;1.80;;;1.70;;
16093;SDS011;8151;47.824;12.092;2023-03-23T04:10:15;3.57;;;1.70;;
16093;SDS011;8151;47.824;12.092;2023-03-23T04:12:45;4.37;;;1.90;;
16093;SDS011;8151;47.824;12.092;2023-03-23T04:15:15;2.47;;;1.73;;
16093;SDS011;8151;47.824;12.092;2023-03-23T04:17:42;2.10;;;1.90;;
16093;SDS011;8151;47.824;12.092;2023-03-23T04:20:10;2.47;;;1.83;;
16093;SDS011;8151;47.824;12.092;2023-03-23T04:22:44;2.13;;;1.80;;
16093;SDS011;8151;47.824;12.092;2023-03-23T04:25:15;2.53;;;1.80;;
16093;SDS011;8151;47.824;12.092;2023-03-23T04:27:46;3.10;;;1.90;;
16093;SDS011;8151;47.824;12.092;2023-03-23T04:30:18;2.37;;;1.90;;
16093;SDS011;8151;47.824;12.092;2023-03-23T04:32:48;2.97;;;1.60;;
16093;SDS011;8151;47.824;12.092;2023-03-23T04:35:18;1.60;;;1.50;;
16093;SDS011;8151;47.824;12.092;2023-03-23T04:37:48;4.20;;;1.90;;
16093;SDS011;8151;47.824;12.092;2023-03-23T04:40:16;2.17;;;1.97;;
16093;SDS011;8151;47.824;12.092;2023-03-23T04:42:44;9.67;;;2.00;;
16093;SDS011;8151;47.824;12.092;2023-03-23T04:45:12;1.70;;;1.60;;
16093;SDS011;8151;47.824;12.092;2023-03-23T04:47:42;3.97;;;2.10;;
16093;SDS011;8151;47.824;12.092;2023-03-23T04:50:19;2.03;;;1.90;;
16093;SDS011;8151;47.824;12.092;2023-03-23T04:52:51;2.20;;;1.90;;
16093;SDS011;8151;47.824;12.092;2023-03-23T04:55:20;6.23;;;2.30;;
16093;SDS011;8151;47.824;12.092;2023-03-23T04:57:47;3.40;;;1.80;;
16093;SDS011;8151;47.824;12.092;2023-03-23T05:00:15;4.33;;;1.60;;
16093;SDS011;8151;47.824;12.092;2023-03-23T05:02:44;2.33;;;1.97;;
16093;SDS011;8151;47.824;12.092;2023-03-23T05:05:13;2.13;;;1.93;;
16093;SDS011;8151;47.824;12.092;2023-03-23T05:07:41;3.17;;;1.93;;
16093;SDS011;8151;47.824;12.092;2023-03-23T05:10:11;4.50;;;1.93;;
16093;SDS011;8151;47.824;12.092;2023-03-23T05:12:41;2.80;;;2.30;;
16093;SDS011;8151;47.824;12.092;2023-03-23T05:15:10;3.47;;;1.93;;
16093;SDS011;8151;47.824;12.092;2023-03-23T05:17:38;1.80;;;1.70;;
16093;SDS011;8151;47.824;12.092;2023-03-23T05:20:09;2.40;;;2.20;;
16093;SDS011;8151;47.824;12.092;2023-03-23T05:22:40;4.27;;;2.13;;
16093;SDS011;8151;47.824;12.092;2023-03-23T05:25:11;4.07;;;2.20;;
16093;SDS011;8151;47.824;12.092;2023-03-23T05:27:38;2.07;;;1.90;;
16093;SDS011;8151;47.824;12.092;2023-03-23T05:30:08;3.43;;;2.20;;
16093;SDS011;8151;47.824;12.092;2023-03-23T05:32:37;6.57;;;1.77;;
16093;SDS011;8151;47.824;12.092;2023-03-23T05:35:05;2.13;;;1.93;;
16093;SDS011;8151;47.824;12.092;2023-03-23T05:37:34;2.03;;;1.87;;
16093;SDS011;8151;47.824;12.092;2023-03-23T05:40:02;4.07;;;1.90;;
16093;SDS011;8151;47.824;12.092;2023-03-23T05:42:33;2.70;;;1.77;;
16093;SDS011;8151;47.824;12.092;2023-03-23T05:45:02;2.30;;;2.10;;
16093;SDS011;8151;47.824;12.092;2023-03-23T05:47:29;4.53;;;2.33;;
16093;SDS011;8151;47.824;12.092;2023-03-23T05:49:57;4.17;;;2.27;;
16093;SDS011;8151;47.824;12.092;2023-03-23T05:52:26;2.10;;;1.90;;
16093;SDS011;8151;47.824;12.092;2023-03-23T05:54:53;3.33;;;2.10;;
16093;SDS011;8151;47.824;12.092;2023-03-23T05:57:21;2.53;;;1.97;;
16093;SDS011;8151;47.824;12.092;2023-03-23T05:59:49;2.30;;;2.10;;
16093;SDS011;8151;47.824;12.092;2023-03-23T06:02:17;3.33;;;1.90;;
16093;SDS011;8151;47.824;12.092;2023-03-23T06:04:45;2.17;;;1.80;;
16093;SDS011;8151;47.824;12.092;2023-03-23T06:07:14;2.17;;;2.03;;
16093;SDS011;8151;47.824;12.092;2023-03-23T06:09:42;2.33;;;2.00;;
16093;SDS011;8151;47.824;12.092;2023-03-23T06:12:09;8.93;;;2.20;;
16093;SDS011;8151;47.824;12.092;2023-03-23T06:14:36;5.20;;;2.30;;
16093;SDS011;8151;47.824;12.092;2023-03-23T06:17:06;2.93;;;2.17;;
16093;SDS011;8151;47.824;12.092;2023-03-23T06:19:34;6.80;;;2.47;;
16093;SDS011;8151;47.824;12.092;2023-03-23T06:22:03;2.47;;;2.07;;
16093;SDS011;8151;47.824;12.092;2023-03-23T06:24:31;3.67;;;2.10;;
16093;SDS011;8151;47.824;12.092;2023-03-23T06:27:05;6.67;;;2.20;;
16093;SDS011;8151;47.824;12.092;2023-03-23T06:29:35;3.07;;;2.20;;
16093;SDS011;8151;47.824;12.092;2023-03-23T06:32:06;2.87;;;2.20;;
16093;SDS011;8151;47.824;12.092;2023-03-23T06:34:34;2.40;;;1.77;;
16093;SDS011;8151;47.824;12.092;2023-03-23T06:37:03;2.60;;;1.90;;
16093;SDS011;8151;47.824;12.092;2023-03-23T06:39:31;2.87;;;1.70;;
16093;SDS011;8151;47.824;12.092;2023-03-23T06:41:58;2.27;;;2.03;;
16093;SDS011;8151;47.824;12.092;2023-03-23T06:44:25;1.80;;;1.70;;
16093;SDS011;8151;47.824;12.092;2023-03-23T06:46:53;2.20;;;2.00;;
16093;SDS011;8151;47.824;12.092;2023-03-23T06:49:22;2.07;;;1.93;;
16093;SDS011;8151;47.824;12.092;2023-03-23T06:51:49;2.40;;;1.90;;
16093;SDS011;8151;47.824;12.092;2023-03-23T06:54:17;3.50;;;2.20;;
16093;SDS011;8151;47.824;12.092;2023-03-23T06:56:44;3.13;;;2.40;;
16093;SDS011;8151;47.824;12.092;2023-03-23T06:59:12;6.27;;;2.20;;
16093;SDS011;8151;47.824;12.092;2023-03-23T07:01:39;2.37;;;2.17;;
16093;SDS011;8151;47.824;12.092;2023-03-23T07:04:06;3.03;;;2.23;;
16093;SDS011;8151;47.824;12.092;2023-03-23T07:06:35;2.40;;;2.20;;
16093;SDS011;8151;47.824;12.092;2023-03-23T07:09:03;3.47;;;2.30;;
16093;SDS011;8151;47.824;12.092;2023-03-23T07:11:31;2.80;;;2.50;;
16093;SDS011;8151;47.824;12.092;2023-03-23T07:14:02;3.03;;;2.40;;
16093;SDS011;8151;47.824;12.092;2023-03-23T07:16:30;5.33;;;2.53;;
16093;SDS011;8151;47.824;12.092;2023-03-23T07:18:57;6.00;;;2.60;;
16093;SDS011;8151;47.824;12.092;2023-03-23T07:21:25;3.20;;;2.50;;
16093;SDS011;8151;47.824;12.092;2023-03-23T07:23:54;3.90;;;2.53;;
16093;SDS011;8151;47.824;12.092;2023-03-23T07:26:21;3.60;;;2.37;;
16093;SDS011;8151;47.824;12.092;2023-03-23T07:28:49;3.17;;;2.40;;
16093;SDS011;8151;47.824;12.092;2023-03-23T07:31:16;5.47;;;2.70;;
16093;SDS011;8151;47.824;12.092;2023-03-23T07:33:43;7.90;;;2.50;;
16093;SDS011;8151;47.824;12.092;2023-03-23T07:36:11;3.77;;;2.60;;
16093;SDS011;8151;47.824;12.092;2023-03-23T07:38:39;3.67;;;2.90;;
16093;SDS011;8151;47.824;12.092;2023-03-23T07:41:08;3.47;;;2.50;;
16093;SDS011;8151;47.824;12.092;2023-03-23T07:43:35;2.73;;;2.53;;
16093;SDS011;8151;47.824;12.092;2023-03-23T07:46:03;2.80;;;2.40;;
16093;SDS011;8151;47.824;12.092;2023-03-23T07:48:30;4.10;;;2.60;;
16093;SDS011;8151;47.824;12.092;2023-03-23T07:50:58;2.97;;;2.50;;
16093;SDS011;8151;47.824;12.092;2023-03-23T07:53:25;2.97;;;2.37;;
16093;SDS011;8151;47.824;12.092;2023-03-23T07:55:53;2.40;;;2.20;;
16093;SDS011;8151;47.824;12.092;2023-03-23T07:58:21;3.33;;;2.20;;
16093;SDS011;8151;47.824;12.092;2023-03-23T08:00:49;2.47;;;2.27;;
16093;SDS011;8151;47.824;12.092;2023-03-23T08:03:16;4.60;;;2.50;;
16093;SDS011;8151;47.824;12.092;2023-03-23T08:05:43;4.50;;;2.80;;
16093;SDS011;8151;47.824;12.092;2023-03-23T08:08:11;2.53;;;2.33;;
16093;SDS011;8151;47.824;12.092;2023-03-23T08:10:39;3.13;;;2.73;;
16093;SDS011;8151;47.824;12.092;2023-03-23T08:13:07;6.70;;;2.80;;
16093;SDS011;8151;47.824;12.092;2023-03-23T08:15:37;2.80;;;2.40;;
16093;SDS011;8151;47.824;12.092;2023-03-23T08:18:05;2.53;;;2.30;;
16093;SDS011;8151;47.824;12.092;2023-03-23T08:20:32;3.27;;;2.67;;
16093;SDS011;8151;47.824;12.092;2023-03-23T08:22:59;2.93;;;2.70;;
16093;SDS011;8151;47.824;12.092;2023-03-23T08:25:28;3.30;;;2.60;;
16093;SDS011;8151;47.824;12.092;2023-03-23T08:27:57;6.33;;;2.60;;
16093;SDS011;8151;47.824;12.092;2023-03-23T08:30:27;5.37;;;3.03;;
16093;SDS011;8151;47.824;12.092;2023-03-23T08:32:59;3.53;;;2.60;;
16093;SDS011;8151;47.824;12.092;2023-03-23T08:35:27;3.63;;;2.70;;
16093;SDS011;8151;47.824;12.092;2023-03-23T08:37:55;5.20;;;2.97;;
16093;SDS011;8151;47.824;12.092;2023-03-23T08:40:23;3.60;;;2.63;;
16093;SDS011;8151;47.824;12.092;2023-03-23T08:42:52;3.23;;;2.70;;
16093;SDS011;8151;47.824;12.092;2023-03-23T08:45:21;4.77;;;2.57;;
16093;SDS011;8151;47.824;12.092;2023-03-23T08:47:50;2.73;;;2.30;;
16093;SDS011;8151;47.824;12.092;2023-03-23T08:50:23;4.13;;;2.83;;
16093;SDS011;8151;47.824;12.092;2023-03-23T08:52:52;6.13;;;3.17;;
16093;SDS011;8151;47.824;12.092;2023-03-23T08:55:20;3.73;;;2.83;;
16093;SDS011;8151;47.824;12.092;2023-03-23T08:57:48;4.73;;;2.60;;
16093;SDS011;8151;47.824;12.092;2023-03-23T09:00:16;3.90;;;2.80;;
16093;SDS011;8151;47.824;12.092;2023-03-23T09:02:47;6.60;;;2.87;;
16093;SDS011;8151;47.824;12.092;2023-03-23T09:05:16;4.43;;;2.97;;
16093;SDS011;8151;47.824;12.092;2023-03-23T09:07:46;4.10;;;2.83;;
16093;SDS011;8151;47.824;12.092;2023-03-23T09:10:16;4.97;;;2.90;;
16093;SDS011;8151;47.824;12.092;2023-03-23T09:12:44;11.10;;;3.33;;
16093;SDS011;8151;47.824;12.092;2023-03-23T09:15:14;3.53;;;3.10;;
16093;SDS011;8151;47.824;12.092;2023-03-23T09:17:44;3.23;;;2.93;;
16093;SDS011;8151;47.824;12.092;2023-03-23T09:20:13;3.57;;;3.00;;
16093;SDS011;8151;47.824;12.092;2023-03-23T09:22:42;12.57;;;3.07;;
16093;SDS011;8151;47.824;12.092;2023-03-23T09:25:13;3.73;;;3.20;;
16093;SDS011;8151;47.824;12.092;2023-03-23T09:27:48;7.13;;;3.00;;
16093;SDS011;8151;47.824;12.092;2023-03-23T09:30:18;4.80;;;3.10;;
16093;SDS011;8151;47.824;12.092;2023-03-23T09:32:47;4.83;;;3.30;;
16093;SDS011;8151;47.824;12.092;2023-03-23T09:35:15;6.03;;;3.30;;
16093;SDS011;8151;47.824;12.092;2023-03-23T09:37:43;4.33;;;3.07;;
16093;SDS011;8151;47.824;12.092;2023-03-23T09:40:16;3.53;;;3.13;;
16093;SDS011;8151;47.824;12.092;2023-03-23T09:42:49;5.97;;;3.53;;
16093;SDS011;8151;47.824;12.092;2023-03-23T09:45:25;4.27;;;3.40;;
16093;SDS011;8151;47.824;12.092;2023-03-23T09:48:04;5.73;;;3.40;;
16093;SDS011;8151;47.824;12.092;2023-03-23T09:50:48;5.47;;;3.40;;
16093;SDS011;8151;47.824;12.092;2023-03-23T09:53:20;7.53;;;3.80;;
16093;SDS011;8151;47.824;12.092;2023-03-23T09:55:53;4.00;;;3.33;;
16093;SDS011;8151;47.824;12.092;2023-03-23T09:58:21;4.00;;;3.60;;
16093;SDS011;8151;47.824;12.092;2023-03-23T10:00:56;4.83;;;3.90;;
16093;SDS011;8151;47.824;12.092;2023-03-23T10:03:30;6.23;;;3.67;;
16093;SDS011;8151;47.824;12.092;2023-03-23T10:06:04;5.90;;;4.00;;
16093;SDS011;8151;47.824;12.092;2023-03-23T10:08:36;5.77;;;3.93;;
16093;SDS011;8151;47.824;12.092;2023-03-23T10:11:10;6.13;;;4.07;;
16093;SDS011;8151;47.824;12.092;2023-03-23T10:13:48;5.70;;;3.77;;
16093;SDS011;8151;47.824;12.092;2023-03-23T10:16:25;6.10;;;3.80;;
16093;SDS011;8151;47.824;12.092;2023-03-23T10:18:56;5.37;;;4.17;;
16093;SDS011;8151;47.824;12.092;2023-03-23T10:21:28;5.50;;;4.20;;
16093;SDS011;8151;47.824;12.092;2023-03-23T10:23:59;6.53;;;4.40;;
16093;SDS011;8151;47.824;12.092;2023-03-23T10:26:33;12.80;;;4.50;;
16093;SDS011;8151;47.824;12.092;2023-03-23T10:29:12;6.10;;;4.70;;
16093;SDS011;8151;47.824;12.092;2023-03-23T10:31:46;5.33;;;4.23;;
16093;SDS011;8151;47.824;12.092;2023-03-23T10:34:18;10.67;;;5.47;;
16093;SDS011;8151;47.824;12.092;2023-03-23T10:36:55;8.10;;;4.60;;
16093;SDS011;8151;47.824;12.092;2023-03-23T10:39:29;6.70;;;4.80;;
16093;SDS011;8151;47.824;12.092;2023-03-23T10:42:01;7.83;;;4.70;;
16093;SDS011;8151;47.824;12.092;2023-03-23T10:44:33;8.53;;;4.93;;
16093;SDS011;8151;47.824;12.092;2023-03-23T10:47:01;7.50;;;4.73;;
16093;SDS011;8151;47.824;12.092;2023-03-23T10:49:32;9.70;;;5.60;;
16093;SDS011;8151;47.824;12.092;2023-03-23T10:52:04;11.03;;;5.30;;
16093;SDS011;8151;47.824;12.092;2023-03-23T10:54:36;5.00;;;4.40;;
16093;SDS011;8151;47.824;12.092;2023-03-23T10:57:17;5.83;;;4.70;;
16093;SDS011;8151;47.824;12.092;2023-03-23T10:59:48;6.13;;;5.00;;
16093;SDS011;8151;47.824;12.092;2023-03-23T11:02:17;9.27;;;5.37;;
16093;SDS011;8151;47.824;12.092;2023-03-23T11:04:46;6.60;;;4.80;;
16093;SDS011;8151;47.824;12.092;2023-03-23T11:07:25;6.10;;;4.77;;
16093;SDS011;8151;47.824;12.092;2023-03-23T11:09:55;5.77;;;4.70;;
16093;SDS011;8151;47.824;12.092;2023-03-23T11:12:26;10.87;;;5.23;;
16093;SDS011;8151;47.824;12.092;2023-03-23T11:15:02;10.27;;;5.23;;
16093;SDS011;8151;47.824;12.092;2023-03-23T11:17:37;6.13;;;4.93;;
16093;SDS011;8151;47.824;12.092;2023-03-23T11:20:10;8.33;;;5.17;;
16093;SDS011;8151;47.824;12.092;2023-03-23T11:22:38;11.23;;;5.50;;
16093;SDS011;8151;47.824;12.092;2023-03-23T11:25:08;7.33;;;4.87;;
16093;SDS011;8151;47.824;12.092;2023-03-23T11:27:41;7.43;;;5.40;;
16093;SDS011;8151;47.824;12.092;2023-03-23T11:30:10;6.27;;;5.10;;
16093;SDS011;8151;47.824;12.092;2023-03-23T11:32:47;8.47;;;5.33;;
16093;SDS011;8151;47.824;12.092;2023-03-23T11:35:16;6.47;;;5.43;;
16093;SDS011;8151;47.824;12.092;2023-03-23T11:37:53;7.43;;;4.90;;
16093;SDS011;8151;47.824;12.092;2023-03-23T11:40:23;7.03;;;4.90;;
16093;SDS011;8151;47.824;12.092;2023-03-23T11:42:58;6.50;;;5.50;;
16093;SDS011;8151;47.824;12.092;2023-03-23T11:45:31;6.77;;;5.20;;
16093;SDS011;8151;47.824;12.092;2023-03-23T11:48:06;8.87;;;5.33;;
16093;SDS011;8151;47.824;12.092;2023-03-23T11:50:45;13.27;;;5.63;;
16093;SDS011;8151;47.824;12.092;2023-03-23T11:53:21;9.53;;;5.17;;
16093;SDS011;8151;47.824;12.092;2023-03-23T11:56:00;7.43;;;5.20;;
16093;SDS011;8151;47.824;12.092;2023-03-23T11:58:34;6.90;;;5.10;;
16093;SDS011;8151;47.824;12.092;2023-03-23T12:01:04;7.10;;;5.23;;
16093;SDS011;8151;47.824;12.092;2023-03-23T12:03:45;5.23;;;4.67;;
16093;SDS011;8151;47.824;12.092;2023-03-23T12:06:27;5.90;;;4.83;;
16093;SDS011;8151;47.824;12.092;2023-03-23T12:09:08;10.83;;;5.70;;
16093;SDS011;8151;47.824;12.092;2023-03-23T12:11:51;7.67;;;5.73;;
16093;SDS011;8151;47.824;12.092;2023-03-23T12:14:28;8.77;;;5.77;;
16093;SDS011;8151;47.824;12.092;2023-03-23T12:17:03;8.63;;;6.00;;
16093;SDS011;8151;47.824;12.092;2023-03-23T12:19:45;7.77;;;5.73;;
16093;SDS011;8151;47.824;12.092;2023-03-23T12:22:24;8.20;;;6.03;;
16093;SDS011;8151;47.824;12.092;2023-03-23T12:25:15;10.47;;;5.60;;
16093;SDS011;8151;47.824;12.092;2023-03-23T12:28:02;7.33;;;5.57;;
16093;SDS011;8151;47.824;12.092;2023-03-23T12:30:38;10.17;;;6.10;;
16093;SDS011;8151;47.824;12.092;2023-03-23T12:33:17;10.13;;;5.77;;
16093;SDS011;8151;47.824;12.092;2023-03-23T12:35:55;8.10;;;5.53;;
16093;SDS011;8151;47.824;12.092;2023-03-23T12:38:34;8.07;;;5.50;;
16093;SDS011;8151;47.824;12.092;2023-03-23T12:41:15;9.57;;;5.20;;
16093;SDS011;8151;47.824;12.092;2023-03-23T12:43:47;7.63;;;5.77;;
16093;SDS011;8151;47.824;12.092;2023-03-23T12:46:25;8.00;;;5.30;;
16093;SDS011;8151;47.824;12.092;2023-03-23T12:49:00;8.97;;;5.87;;
16093;SDS011;8151;47.824;12.092;2023-03-23T12:51:34;8.60;;;5.60;;
16093;SDS011;8151;47.824;12.092;2023-03-23T12:54:07;11.73;;;6.07;;
16093;SDS011;8151;47.824;12.092;2023-03-23T12:56:40;10.00;;;5.77;;
16093;SDS011;8151;47.824;12.092;2023-03-23T12:59:19;7.53;;;5.17;;
16093;SDS011;8151;47.824;12.092;2023-03-23T13:01:54;7.10;;;4.43;;
16093;SDS011;8151;47.824;12.092;2023-03-23T13:04:27;6.67;;;4.67;;
16093;SDS011;8151;47.824;12.092;2023-03-23T13:07:00;7.47;;;5.27;;
16093;SDS011;8151;47.824;12.092;2023-03-23T13:09:32;6.67;;;4.70;;
16093;SDS011;8151;47.824;12.092;2023-03-23T13:12:15;3.93;;;3.40;;
16093;SDS011;8151;47.824;12.092;2023-03-23T13:14:47;5.97;;;3.23;;
16093;SDS011;8151;47.824;12.092;2023-03-23T13:17:28;6.63;;;3.60;;
16093;SDS011;8151;47.824;12.092;2023-03-23T13:20:13;4.33;;;3.60;;
16093;SDS011;8151;47.824;12.092;2023-03-23T13:22:58;11.73;;;5.37;;
16093;SDS011;8151;47.824;12.092;2023-03-23T13:25:48;7.47;;;6.00;;
16093;SDS011;8151;47.824;12.092;2023-03-23T13:28:19;7.27;;;4.80;;
16093;SDS011;8151;47.824;12.092;2023-03-23T13:30:55;5.10;;;3.47;;
16093;SDS011;8151;47.824;12.092;2023-03-23T13:33:25;4.30;;;3.07;;
16093;SDS011;8151;47.824;12.092;2023-03-23T13:35:57;4.90;;;3.87;;
16093;SDS011;8151;47.824;12.092;2023-03-23T13:38:32;4.43;;;3.20;;
16093;SDS011;8151;47.824;12.092;2023-03-23T13:41:05;5.27;;;2.77;;
16093;SDS011;8151;47.824;12.092;2023-03-23T13:43:35;2.90;;;2.50;;
16093;SDS011;8151;47.824;12.092;2023-03-23T13:46:07;9.33;;;3.00;;
16093;SDS011;8151;47.824;12.092;2023-03-23T13:48:45;6.97;;;3.30;;
16093;SDS011;8151;47.824;12.092;2023-03-23T13:51:25;3.53;;;2.63;;
16093;SDS011;8151;47.824;12.092;2023-03-23T13:54:06;6.50;;;2.90;;
16093;SDS011;8151;47.824;12.092;2023-03-23T13:56:41;5.23;;;3.07;;
16093;SDS011;8151;47.824;12.092;2023-03-23T13:59:13;3.10;;;2.70;;
16093;SDS011;8151;47.824;12.092;2023-03-23T14:01:42;3.97;;;2.57;;
16093;SDS011;8151;47.824;12.092;2023-03-23T14:04:12;3.90;;;2.60;;
16093;SDS011;8151;47.824;12.092;2023-03-23T14:06:42;8.10;;;2.70;;
16093;SDS011;8151;47.824;12.092;2023-03-23T14:09:12;3.53;;;2.30;;
16093;SDS011;8151;47.824;12.092;2023-03-23T14:11:50;3.63;;;2.80;;
16093;SDS011;8151;47.824;12.092;2023-03-23T14:14:26;3.30;;;2.50;;
16093;SDS011;8151;47.824;12.092;2023-03-23T14:17:05;4.00;;;2.33;;
16093;SDS011;8151;47.824;12.092;2023-03-23T14:19:37;2.73;;;2.10;;
16093;SDS011;8151;47.824;12.092;2023-03-23T14:22:15;3.90;;;2.60;;
16093;SDS011;8151;47.824;12.092;2023-03-23T14:24:44;2.93;;;2.63;;
16093;SDS011;8151;47.824;12.092;2023-03-23T14:27:12;4.17;;;2.13;;
16093;SDS011;8151;47.824;12.092;2023-03-23T14:29:42;3.73;;;2.40;;
16093;SDS011;8151;47.824;12.092;2023-03-23T14:32:11;4.17;;;2.60;;
16093;SDS011;8151;47.824;12.092;2023-03-23T14:34:43;2.63;;;2.27;;
16093;SDS011;8151;47.824;12.092;2023-03-23T14:37:13;4.13;;;2.83;;
16093;SDS011;8151;47.824;12.092;2023-03-23T14:39:44;7.47;;;3.10;;
16093;SDS011;8151;47.824;12.092;2023-03-23T14:42:22;17.23;;;11.63;;
16093;SDS011;8151;47.824;12.092;2023-03-23T14:44:53;9.87;;;4.07;;
16093;SDS011;8151;47.824;12.092;2023-03-23T14:47:26;3.87;;;2.53;;
16093;SDS011;8151;47.824;12.092;2023-03-23T14:50:00;2.73;;;2.40;;
16093;SDS011;8151;47.824;12.092;2023-03-23T14:52:34;3.73;;;2.50;;
16093;SDS011;8151;47.824;12.092;2023-03-23T14:55:14;3.33;;;2.30;;
16093;SDS011;8151;47.824;12.092;2023-03-23T14:57:44;3.00;;;2.70;;
16093;SDS011;8151;47.824;12.092;2023-03-23T15:00:15;3.47;;;2.47;;
16093;SDS011;8151;47.824;12.092;2023-03-23T15:02:46;6.50;;;2.47;;
16093;SDS011;8151;47.824;12.092;2023-03-23T15:05:21;3.10;;;2.53;;
16093;SDS011;8151;47.824;12.092;2023-03-23T15:07:54;3.40;;;2.53;;
16093;SDS011;8151;47.824;12.092;2023-03-23T15:10:23;3.77;;;2.70;;
16093;SDS011;8151;47.824;12.092;2023-03-23T15:12:53;5.27;;;1.93;;
16093;SDS011;8151;47.824;12.092;2023-03-23T15:15:25;1.90;;;1.80;;
16093;SDS011;8151;47.824;12.092;2023-03-23T15:17:57;5.50;;;2.07;;
16093;SDS011;8151;47.824;12.092;2023-03-23T15:20:28;4.63;;;1.87;;
16093;SDS011;8151;47.824;12.092;2023-03-23T15:23:04;5.37;;;1.80;;